sensor_id;sensor_type;location;lat;lon;timestamp;pressure;altitude;pressure_sealevel;temperature;humidity
49044;BME280;34860;48.066;14.124;2023-04-05T00:01:15;97085.03;;;4.60;54.37
49044;BME280;34860;48.066;14.124;2023-04-05T00:04:08;97083.44;;;4.55;54.35
49044;BME280;34860;48.066;14.124;2023-04-05T00:06:56;97075.94;;;4.52;54.43
49044;BME280;34860;48.066;14.124;2023-04-05T00:09:44;97073.97;;;4.49;54.26
49044;BME280;34860;48.066;14.124;2023-04-05T00:12:34;97063.34;;;4.44;54.18
49044;BME280;34860;48.066;14.124;2023-04-05T00:15:26;97060.94;;;4.39;54.26
49044;BME280;34860;48.066;14.124;2023-04-05T00:18:16;97060.13;;;4.34;54.31
49044;BME280;34860;48.066;14.124;2023-04-05T00:21:09;97062.06;;;4.30;54.24
49044;BME280;34860;48.066;14.124;2023-04-05T00:23:58;97054.97;;;4.26;54.41
49044;BME280;34860;48.066;14.124;2023-04-05T00:26:46;97053.38;;;4.21;54.31
49044;BME280;34860;48.066;14.124;2023-04-05T00:29:35;97052.59;;;4.17;54.31
49044;BME280;34860;48.066;14.124;2023-04-05T00:32:25;97058.06;;;4.13;54.38
49044;BME280;34860;48.066;14.124;2023-04-05T00:35:15;97050.16;;;4.08;54.36
49044;BME280;34860;48.066;14.124;2023-04-05T00:38:03;97052.13;;;4.04;54.40
49044;BME280;34860;48.066;14.124;2023-04-05T00:40:52;97057.63;;;4.00;54.41
49044;BME280;34860;48.066;14.124;2023-04-05T00:43:41;97053.25;;;3.96;54.27
49044;BME280;34860;48.066;14.124;2023-04-05T00:46:33;97048.91;;;3.91;54.43
49044;BME280;34860;48.066;14.124;2023-04-05T00:49:22;97053.19;;;3.89;54.33
49044;BME280;34860;48.066;14.124;2023-04-05T00:52:14;97053.56;;;3.84;54.31
49044;BME280;34860;48.066;14.124;2023-04-05T00:55:06;97054.72;;;3.79;54.19
49044;BME280;34860;48.066;14.124;2023-04-05T00:57:54;97048.38;;;3.75;54.34
49044;BME280;34860;48.066;14.124;2023-04-05T01:00:49;97047.59;;;3.71;54.35
49044;BME280;34860;48.066;14.124;2023-04-05T01:03:44;97047.16;;;3.65;54.39
49044;BME280;34860;48.066;14.124;2023-04-05T01:06:47;97038.88;;;3.61;54.36
49044;BME280;34860;48.066;14.124;2023-04-05T01:09:44;97037.28;;;3.57;54.50
49044;BME280;34860;48.066;14.124;2023-04-05T01:12:36;97034.13;;;3.51;54.37
49044;BME280;34860;48.066;14.124;2023-04-05T01:15:25;97037.63;;;3.48;54.43
49044;BME280;34860;48.066;14.124;2023-04-05T01:18:14;97044.66;;;3.45;54.45
49044;BME280;34860;48.066;14.124;2023-04-05T01:21:20;97039.91;;;3.42;54.62
49044;BME280;34860;48.066;14.124;2023-04-05T01:24:28;97041.47;;;3.40;54.43
49044;BME280;34860;48.066;14.124;2023-04-05T01:27:21;97033.56;;;3.35;54.42
49044;BME280;34860;48.066;14.124;2023-04-05T01:30:23;97024.53;;;3.31;54.49
49044;BME280;34860;48.066;14.124;2023-04-05T01:33:17;97034.69;;;3.26;54.38
49044;BME280;34860;48.066;14.124;2023-04-05T01:36:15;97035.81;;;3.22;54.46
49044;BME280;34860;48.066;14.124;2023-04-05T01:39:07;97037.38;;;3.19;54.52
49044;BME280;34860;48.066;14.124;2023-04-05T01:41:57;97041.66;;;3.13;54.39
49044;BME280;34860;48.066;14.124;2023-04-05T01:44:46;97034.16;;;3.10;54.55
49044;BME280;34860;48.066;14.124;2023-04-05T01:47:36;97030.59;;;3.06;54.87
49044;BME280;34860;48.066;14.124;2023-04-05T01:50:24;97034.47;;;3.01;54.52
49044;BME280;34860;48.066;14.124;2023-04-05T01:53:12;97024.59;;;2.97;54.61
49044;BME280;34860;48.066;14.124;2023-04-05T01:56:02;97027.31;;;2.93;54.55
49044;BME280;34860;48.066;14.124;2023-04-05T01:58:57;97035.13;;;2.87;54.50
49044;BME280;34860;48.066;14.124;2023-04-05T02:01:46;97033.50;;;2.83;54.63
49044;BME280;34860;48.066;14.124;2023-04-05T02:04:38;97025.63;;;2.78;54.88
49044;BME280;34860;48.066;14.124;2023-04-05T02:07:28;97032.25;;;2.73;54.61
49044;BME280;34860;48.066;14.124;2023-04-05T02:10:17;97025.91;;;2.69;54.78
49044;BME280;34860;48.066;14.124;2023-04-05T02:13:05;97027.03;;;2.64;54.94
49044;BME280;34860;48.066;14.124;2023-04-05T02:15:53;97021.88;;;2.59;54.93
49044;BME280;34860;48.066;14.124;2023-04-05T02:18:42;97029.28;;;2.55;54.74
49044;BME280;34860;48.066;14.124;2023-04-05T02:21:37;97026.13;;;2.53;54.83
49044;BME280;34860;48.066;14.124;2023-04-05T02:24:27;97022.94;;;2.47;54.87
49044;BME280;34860;48.066;14.124;2023-04-05T02:27:16;97021.72;;;2.45;55.03
49044;BME280;34860;48.066;14.124;2023-04-05T02:30:05;97022.06;;;2.40;55.11
49044;BME280;34860;48.066;14.124;2023-04-05T02:32:55;97022.81;;;2.36;55.01
49044;BME280;34860;48.066;14.124;2023-04-05T02:35:43;97025.56;;;2.36;55.03
49044;BME280;34860;48.066;14.124;2023-04-05T02:38:38;97019.59;;;2.31;54.98
49044;BME280;34860;48.066;14.124;2023-04-05T02:41:26;97023.91;;;2.28;54.98
49044;BME280;34860;48.066;14.124;2023-04-05T02:44:14;97023.47;;;2.26;54.91
49044;BME280;34860;48.066;14.124;2023-04-05T02:47:02;97017.16;;;2.22;54.91
49044;BME280;34860;48.066;14.124;2023-04-05T02:49:51;97017.53;;;2.21;55.07
49044;BME280;34860;48.066;14.124;2023-04-05T02:52:44;97023.75;;;2.17;55.03
49044;BME280;34860;48.066;14.124;2023-04-05T02:55:33;97019.81;;;2.15;55.08
49044;BME280;34860;48.066;14.124;2023-04-05T02:58:22;97012.31;;;2.12;55.07
49044;BME280;34860;48.066;14.124;2023-04-05T03:01:11;97014.66;;;2.10;55.22
49044;BME280;34860;48.066;14.124;2023-04-05T03:04:00;97012.66;;;2.07;55.06
49044;BME280;34860;48.066;14.124;2023-04-05T03:06:51;97014.19;;;2.04;54.97
49044;BME280;34860;48.066;14.124;2023-04-05T03:09:43;97014.94;;;2.01;55.08
49044;BME280;34860;48.066;14.124;2023-04-05T03:12:34;97001.63;;;1.99;55.16
49044;BME280;34860;48.066;14.124;2023-04-05T03:15:22;97008.25;;;1.98;55.03
49044;BME280;34860;48.066;14.124;2023-04-05T03:18:10;97007.03;;;1.96;55.09
49044;BME280;34860;48.066;14.124;2023-04-05T03:21:02;97006.63;;;1.94;55.19
49044;BME280;34860;48.066;14.124;2023-04-05T03:23:53;97002.25;;;1.89;55.08
49044;BME280;34860;48.066;14.124;2023-04-05T03:26:48;97000.28;;;1.90;55.16
49044;BME280;34860;48.066;14.124;2023-04-05T03:29:41;96996.34;;;1.87;54.93
49044;BME280;34860;48.066;14.124;2023-04-05T03:32:35;96999.47;;;1.86;55.10
49044;BME280;34860;48.066;14.124;2023-04-05T03:35:36;96998.69;;;1.85;55.21
49044;BME280;34860;48.066;14.124;2023-04-05T03:38:27;97002.22;;;1.86;55.13
49044;BME280;34860;48.066;14.124;2023-04-05T03:41:30;97002.16;;;1.82;55.15
49044;BME280;34860;48.066;14.124;2023-04-05T03:44:19;96993.13;;;1.81;55.12
49044;BME280;34860;48.066;14.124;2023-04-05T03:47:12;96993.13;;;1.81;55.15
49044;BME280;34860;48.066;14.124;2023-04-05T03:50:04;97004.09;;;1.81;55.17
49044;BME280;34860;48.066;14.124;2023-04-05T03:52:56;96997.47;;;1.83;55.10
49044;BME280;34860;48.066;14.124;2023-04-05T03:55:44;96997.47;;;1.83;55.06
49044;BME280;34860;48.066;14.124;2023-04-05T03:58:39;96994.72;;;1.83;55.00
49044;BME280;34860;48.066;14.124;2023-04-05T04:01:28;96997.09;;;1.84;55.08
49044;BME280;34860;48.066;14.124;2023-04-05T04:04:19;96993.97;;;1.86;54.97
49044;BME280;34860;48.066;14.124;2023-04-05T04:07:07;96993.97;;;1.86;55.03
49044;BME280;34860;48.066;14.124;2023-04-05T04:09:55;96992.03;;;1.86;55.08
49044;BME280;34860;48.066;14.124;2023-04-05T04:12:46;96986.53;;;1.86;55.06
49044;BME280;34860;48.066;14.124;2023-04-05T04:15:34;96986.16;;;1.88;55.07
49044;BME280;34860;48.066;14.124;2023-04-05T04:18:40;96988.91;;;1.88;55.04
49044;BME280;34860;48.066;14.124;2023-04-05T04:21:45;96986.16;;;1.88;55.09
49044;BME280;34860;48.066;14.124;2023-04-05T04:25:00;96993.25;;;1.89;55.13
49044;BME280;34860;48.066;14.124;2023-04-05T04:28:13;96995.97;;;1.89;54.98
49044;BME280;34860;48.066;14.124;2023-04-05T04:31:20;96987.75;;;1.89;54.96
49044;BME280;34860;48.066;14.124;2023-04-05T04:34:33;96987.75;;;1.89;55.05
49044;BME280;34860;48.066;14.124;2023-04-05T04:37:37;96991.28;;;1.89;54.92
49044;BME280;34860;48.066;14.124;2023-04-05T04:40:53;96987.75;;;1.89;55.03
49044;BME280;34860;48.066;14.124;2023-04-05T04:43:59;97000.28;;;1.90;55.11
49044;BME280;34860;48.066;14.124;2023-04-05T04:47:12;96997.53;;;1.90;55.05
49044;BME280;34860;48.066;14.124;2023-04-05T04:50:17;96996.75;;;1.89;54.92
49044;BME280;34860;48.066;14.124;2023-04-05T04:53:07;97005.75;;;1.90;55.05
49044;BME280;34860;48.066;14.124;2023-04-05T04:55:56;96994.03;;;1.89;54.97
49044;BME280;34860;48.066;14.124;2023-04-05T04:58:45;97003.47;;;1.92;55.23
49044;BME280;34860;48.066;14.124;2023-04-05T05:01:34;97003.03;;;1.90;55.03
49044;BME280;34860;48.066;14.124;2023-04-05T05:04:28;97006.22;;;1.92;55.19
49044;BME280;34860;48.066;14.124;2023-04-05T05:07:18;97002.66;;;1.91;54.97
49044;BME280;34860;48.066;14.124;2023-04-05T05:10:08;96993.66;;;1.91;55.14
49044;BME280;34860;48.066;14.124;2023-04-05T05:12:59;97004.25;;;1.92;55.05
49044;BME280;34860;48.066;14.124;2023-04-05T05:15:48;97007.34;;;1.91;55.12
49044;BME280;34860;48.066;14.124;2023-04-05T05:18:42;97003.84;;;1.90;55.14
49044;BME280;34860;48.066;14.124;2023-04-05T05:21:34;97005.00;;;1.89;54.98
49044;BME280;34860;48.066;14.124;2023-04-05T05:24:25;97006.13;;;1.88;55.18
49044;BME280;34860;48.066;14.124;2023-04-05T05:27:17;96997.13;;;1.88;55.10
49044;BME280;34860;48.066;14.124;2023-04-05T05:30:07;97008.09;;;1.88;55.15
49044;BME280;34860;48.066;14.124;2023-04-05T05:32:55;97012.81;;;1.87;55.10
49044;BME280;34860;48.066;14.124;2023-04-05T05:35:47;97009.25;;;1.87;55.19
49044;BME280;34860;48.066;14.124;2023-04-05T05:38:36;97011.22;;;1.86;55.15
49044;BME280;34860;48.066;14.124;2023-04-05T05:41:27;97016.69;;;1.86;55.16
49044;BME280;34860;48.066;14.124;2023-04-05T05:44:16;97015.13;;;1.85;55.19
49044;BME280;34860;48.066;14.124;2023-04-05T05:47:06;97016.28;;;1.84;55.29
49044;BME280;34860;48.066;14.124;2023-04-05T05:49:54;97014.31;;;1.85;55.23
49044;BME280;34860;48.066;14.124;2023-04-05T05:52:43;97015.91;;;1.86;55.29
49044;BME280;34860;48.066;14.124;2023-04-05T05:55:31;97017.88;;;1.85;55.39
49044;BME280;34860;48.066;14.124;2023-04-05T05:58:20;97021.38;;;1.86;55.26
49044;BME280;34860;48.066;14.124;2023-04-05T06:01:11;97020.66;;;1.89;55.09
49044;BME280;34860;48.066;14.124;2023-04-05T06:04:01;97020.28;;;1.90;55.12
49044;BME280;34860;48.066;14.124;2023-04-05T06:06:49;97026.19;;;1.92;55.18
49044;BME280;34860;48.066;14.124;2023-04-05T06:09:38;97019.53;;;1.93;55.31
49044;BME280;34860;48.066;14.124;2023-04-05T06:12:27;97024.28;;;1.96;55.29
49044;BME280;34860;48.066;14.124;2023-04-05T06:15:15;97024.69;;;1.98;55.08
49044;BME280;34860;48.066;14.124;2023-04-05T06:18:05;97022.00;;;2.02;55.23
49044;BME280;34860;48.066;14.124;2023-04-05T06:20:54;97031.06;;;2.06;55.31
49044;BME280;34860;48.066;14.124;2023-04-05T06:23:42;97027.59;;;2.09;55.15
49044;BME280;34860;48.066;14.124;2023-04-05T06:26:30;97031.94;;;2.14;55.16
49044;BME280;34860;48.066;14.124;2023-04-05T06:29:18;97023.38;;;2.19;55.25
49044;BME280;34860;48.066;14.124;2023-04-05T06:32:06;97032.88;;;2.25;55.19
49044;BME280;34860;48.066;14.124;2023-04-05T06:34:55;97032.16;;;2.32;55.10
49044;BME280;34860;48.066;14.124;2023-04-05T06:37:43;97028.72;;;2.39;55.07
49044;BME280;34860;48.066;14.124;2023-04-05T06:40:31;97024.09;;;2.46;55.01
49044;BME280;34860;48.066;14.124;2023-04-05T06:43:22;97022.22;;;2.54;54.95
49044;BME280;34860;48.066;14.124;2023-04-05T06:46:10;97019.97;;;2.63;55.12
49044;BME280;34860;48.066;14.124;2023-04-05T06:48:59;97022.00;;;2.70;55.15
49044;BME280;34860;48.066;14.124;2023-04-05T06:51:50;97019.72;;;2.79;55.00
49044;BME280;34860;48.066;14.124;2023-04-05T06:54:38;97030.81;;;2.90;54.83
49044;BME280;34860;48.066;14.124;2023-04-05T06:57:27;97019.53;;;2.99;54.75
49044;BME280;34860;48.066;14.124;2023-04-05T07:00:17;97020.03;;;3.08;54.73
49044;BME280;34860;48.066;14.124;2023-04-05T07:03:06;97018.91;;;3.16;54.79
49044;BME280;34860;48.066;14.124;2023-04-05T07:05:57;97014.69;;;3.26;54.75
49044;BME280;34860;48.066;14.124;2023-04-05T07:08:47;97017.91;;;3.35;54.69
49044;BME280;34860;48.066;14.124;2023-04-05T07:11:35;97016.41;;;3.45;54.71
49044;BME280;34860;48.066;14.124;2023-04-05T07:14:28;97025.50;;;3.56;54.71
49044;BME280;34860;48.066;14.124;2023-04-05T07:17:16;97025.97;;;3.66;54.44
49044;BME280;34860;48.066;14.124;2023-04-05T07:20:05;97013.84;;;3.77;54.52
49044;BME280;34860;48.066;14.124;2023-04-05T07:22:54;97019.81;;;3.87;54.45
49044;BME280;34860;48.066;14.124;2023-04-05T07:25:44;97014.38;;;3.97;54.78
49044;BME280;34860;48.066;14.124;2023-04-05T07:28:34;97017.97;;;4.09;54.58
49044;BME280;34860;48.066;14.124;2023-04-05T07:31:22;97019.19;;;4.18;54.42
49044;BME280;34860;48.066;14.124;2023-04-05T07:34:11;97020.03;;;4.30;54.34
49044;BME280;34860;48.066;14.124;2023-04-05T07:37:01;97017.28;;;4.37;54.46
49044;BME280;34860;48.066;14.124;2023-04-05T07:39:51;97022.44;;;4.49;54.28
49044;BME280;34860;48.066;14.124;2023-04-05T07:42:42;97020.13;;;4.59;54.21
49044;BME280;34860;48.066;14.124;2023-04-05T07:45:30;97024.47;;;4.67;54.12
49044;BME280;34860;48.066;14.124;2023-04-05T07:48:20;97036.69;;;4.77;54.17
49044;BME280;34860;48.066;14.124;2023-04-05T07:51:09;97030.81;;;4.85;54.27
49044;BME280;34860;48.066;14.124;2023-04-05T07:53:59;97030.81;;;4.96;54.10
49044;BME280;34860;48.066;14.124;2023-04-05T07:56:49;97025.72;;;5.05;54.07
49044;BME280;34860;48.066;14.124;2023-04-05T07:59:41;97029.28;;;5.13;54.01
49044;BME280;34860;48.066;14.124;2023-04-05T08:02:30;97027.31;;;5.21;54.11
49044;BME280;34860;48.066;14.124;2023-04-05T08:05:18;97024.97;;;5.26;54.16
49044;BME280;34860;48.066;14.124;2023-04-05T08:08:06;97032.47;;;5.33;54.10
49044;BME280;34860;48.066;14.124;2023-04-05T08:10:56;97028.53;;;5.38;54.14
49044;BME280;34860;48.066;14.124;2023-04-05T08:13:45;97030.06;;;5.42;54.27
49044;BME280;34860;48.066;14.124;2023-04-05T08:16:35;97026.13;;;5.47;54.09
49044;BME280;34860;48.066;14.124;2023-04-05T08:19:24;97022.63;;;5.54;54.20
49044;BME280;34860;48.066;14.124;2023-04-05T08:22:12;97026.94;;;5.62;54.11
49044;BME280;34860;48.066;14.124;2023-04-05T08:25:02;97026.53;;;5.71;54.18
49044;BME280;34860;48.066;14.124;2023-04-05T08:27:54;97032.44;;;5.80;54.07
49044;BME280;34860;48.066;14.124;2023-04-05T08:30:42;97032.81;;;5.86;54.11
49044;BME280;34860;48.066;14.124;2023-04-05T08:33:33;97038.31;;;5.93;53.94
49044;BME280;34860;48.066;14.124;2023-04-05T08:36:21;97030.47;;;5.98;54.01
49044;BME280;34860;48.066;14.124;2023-04-05T08:39:12;97032.78;;;6.07;54.01
49044;BME280;34860;48.066;14.124;2023-04-05T08:42:04;97031.22;;;6.13;53.98
49044;BME280;34860;48.066;14.124;2023-04-05T08:44:59;97029.22;;;6.21;54.02
49044;BME280;34860;48.066;14.124;2023-04-05T08:47:51;97032.34;;;6.27;54.03
49044;BME280;34860;48.066;14.124;2023-04-05T08:50:48;97024.81;;;6.34;53.89
49044;BME280;34860;48.066;14.124;2023-04-05T08:53:41;97017.72;;;6.41;53.95
49044;BME280;34860;48.066;14.124;2023-04-05T08:56:32;97021.59;;;6.50;53.82
49044;BME280;34860;48.066;14.124;2023-04-05T08:59:20;97022.38;;;6.58;53.90
49044;BME280;34860;48.066;14.124;2023-04-05T09:02:13;97018.81;;;6.61;53.81
49044;BME280;34860;48.066;14.124;2023-04-05T09:05:08;97026.66;;;6.66;53.96
49044;BME280;34860;48.066;14.124;2023-04-05T09:07:59;97017.16;;;6.71;53.71
49044;BME280;34860;48.066;14.124;2023-04-05T09:10:48;97019.91;;;6.78;53.89
49044;BME280;34860;48.066;14.124;2023-04-05T09:13:37;97015.91;;;6.86;53.85
49044;BME280;34860;48.066;14.124;2023-04-05T09:16:25;97019.81;;;6.93;53.77
49044;BME280;34860;48.066;14.124;2023-04-05T09:19:15;97020.16;;;6.98;53.82
49044;BME280;34860;48.066;14.124;2023-04-05T09:22:03;97020.91;;;7.06;53.75
49044;BME280;34860;48.066;14.124;2023-04-05T09:24:58;97020.06;;;7.13;53.60
49044;BME280;34860;48.066;14.124;2023-04-05T09:27:54;97016.06;;;7.21;53.72
49044;BME280;34860;48.066;14.124;2023-04-05T09:30:45;97015.63;;;7.30;53.67
49044;BME280;34860;48.066;14.124;2023-04-05T09:33:33;97006.50;;;7.33;53.63
49044;BME280;34860;48.066;14.124;2023-04-05T09:36:21;97012.38;;;7.38;53.63
49044;BME280;34860;48.066;14.124;2023-04-05T09:39:10;97010.75;;;7.44;53.70
49044;BME280;34860;48.066;14.124;2023-04-05T09:42:06;97004.78;;;7.53;53.64
49044;BME280;34860;48.066;14.124;2023-04-05T09:44:56;97003.47;;;7.65;53.53
49044;BME280;34860;48.066;14.124;2023-04-05T09:47:54;97006.13;;;7.76;53.35
49044;BME280;34860;48.066;14.124;2023-04-05T09:50:44;97013.13;;;7.88;53.33
49044;BME280;34860;48.066;14.124;2023-04-05T09:53:32;97005.09;;;8.00;53.31
49044;BME280;34860;48.066;14.124;2023-04-05T09:56:20;96999.03;;;8.13;53.19
49044;BME280;34860;48.066;14.124;2023-04-05T09:59:11;97004.81;;;8.26;53.31
49044;BME280;34860;48.066;14.124;2023-04-05T10:01:59;97000.72;;;8.37;53.19
49044;BME280;34860;48.066;14.124;2023-04-05T10:04:49;96991.91;;;8.50;53.02
49044;BME280;34860;48.066;14.124;2023-04-05T10:07:38;97000.44;;;8.63;53.07
49044;BME280;34860;48.066;14.124;2023-04-05T10:10:28;96997.88;;;8.76;52.97
49044;BME280;34860;48.066;14.124;2023-04-05T10:13:17;97001.28;;;8.87;52.94
49044;BME280;34860;48.066;14.124;2023-04-05T10:16:11;96996.84;;;8.97;52.89
49044;BME280;34860;48.066;14.124;2023-04-05T10:19:04;96985.97;;;9.06;52.85
49044;BME280;34860;48.066;14.124;2023-04-05T10:21:59;96985.47;;;9.15;52.73
49044;BME280;34860;48.066;14.124;2023-04-05T10:24:52;96977.41;;;9.24;52.62
49044;BME280;34860;48.066;14.124;2023-04-05T10:27:46;96975.25;;;9.35;52.80
49044;BME280;34860;48.066;14.124;2023-04-05T10:30:39;96971.91;;;9.44;52.62
49044;BME280;34860;48.066;14.124;2023-04-05T10:33:35;96972.16;;;9.53;52.68
49044;BME280;34860;48.066;14.124;2023-04-05T10:36:32;96977.56;;;9.60;52.57
49044;BME280;34860;48.066;14.124;2023-04-05T10:39:27;96974.69;;;9.68;52.67
49044;BME280;34860;48.066;14.124;2023-04-05T10:42:19;96960.69;;;9.75;52.68
49044;BME280;34860;48.066;14.124;2023-04-05T10:45:11;96971.59;;;9.86;52.53
49044;BME280;34860;48.066;14.124;2023-04-05T10:48:15;96969.03;;;9.95;52.53
49044;BME280;34860;48.066;14.124;2023-04-05T10:51:13;96964.50;;;10.05;52.56
49044;BME280;34860;48.066;14.124;2023-04-05T10:54:06;96962.72;;;10.14;52.52
49044;BME280;34860;48.066;14.124;2023-04-05T10:56:56;96963.69;;;10.24;52.51
49044;BME280;34860;48.066;14.124;2023-04-05T10:59:47;96956.44;;;10.30;52.50
49044;BME280;34860;48.066;14.124;2023-04-05T11:02:36;96958.34;;;10.37;52.58
49044;BME280;34860;48.066;14.124;2023-04-05T11:05:30;96963.31;;;10.46;52.35
49044;BME280;34860;48.066;14.124;2023-04-05T11:08:22;96955.19;;;10.55;52.55
49044;BME280;34860;48.066;14.124;2023-04-05T11:11:11;96955.81;;;10.63;52.58
49044;BME280;34860;48.066;14.124;2023-04-05T11:14:16;96951.22;;;10.72;52.56
49044;BME280;34860;48.066;14.124;2023-04-05T11:17:23;96958.88;;;10.85;52.44
49044;BME280;34860;48.066;14.124;2023-04-05T11:20:11;96953.88;;;10.96;52.48
49044;BME280;34860;48.066;14.124;2023-04-05T11:23:02;96953.19;;;11.08;52.47
49044;BME280;34860;48.066;14.124;2023-04-05T11:25:55;96946.94;;;11.21;52.44
49044;BME280;34860;48.066;14.124;2023-04-05T11:28:46;96946.16;;;11.37;52.38
49044;BME280;34860;48.066;14.124;2023-04-05T11:31:35;96938.59;;;11.54;52.12
49044;BME280;34860;48.066;14.124;2023-04-05T11:34:23;96941.88;;;11.65;52.14
49044;BME280;34860;48.066;14.124;2023-04-05T11:37:14;96940.03;;;11.75;52.12
49044;BME280;34860;48.066;14.124;2023-04-05T11:40:23;96941.22;;;11.90;52.22
49044;BME280;34860;48.066;14.124;2023-04-05T11:43:12;96940.84;;;12.05;52.04
49044;BME280;34860;48.066;14.124;2023-04-05T11:46:04;96937.66;;;12.19;51.86
49044;BME280;34860;48.066;14.124;2023-04-05T11:48:52;96937.69;;;12.32;51.85
49044;BME280;34860;48.066;14.124;2023-04-05T11:51:40;96934.16;;;12.44;51.82
49044;BME280;34860;48.066;14.124;2023-04-05T11:54:31;96932.28;;;12.54;51.90
49044;BME280;34860;48.066;14.124;2023-04-05T11:57:21;96924.69;;;12.54;51.80
49044;BME280;34860;48.066;14.124;2023-04-05T12:00:15;96929.03;;;12.56;51.90
49044;BME280;34860;48.066;14.124;2023-04-05T12:03:04;96930.03;;;12.62;52.00
49044;BME280;34860;48.066;14.124;2023-04-05T12:05:52;96925.81;;;12.70;51.92
49044;BME280;34860;48.066;14.124;2023-04-05T12:08:44;96921.16;;;12.80;51.78
49044;BME280;34860;48.066;14.124;2023-04-05T12:11:36;96922.69;;;12.94;51.68
49044;BME280;34860;48.066;14.124;2023-04-05T12:14:27;96919.47;;;13.08;51.52
49044;BME280;34860;48.066;14.124;2023-04-05T12:17:17;96913.97;;;13.17;51.76
49044;BME280;34860;48.066;14.124;2023-04-05T12:20:06;96909.28;;;13.27;51.47
49044;BME280;34860;48.066;14.124;2023-04-05T12:22:56;96910.97;;;13.37;51.53
49044;BME280;34860;48.066;14.124;2023-04-05T12:25:45;96908.72;;;13.45;51.41
49044;BME280;34860;48.066;14.124;2023-04-05T12:28:50;96902.00;;;13.55;51.19
49044;BME280;34860;48.066;14.124;2023-04-05T12:31:40;96903.31;;;13.63;51.37
49044;BME280;34860;48.066;14.124;2023-04-05T12:34:29;96896.94;;;13.63;51.38
49044;BME280;34860;48.066;14.124;2023-04-05T12:37:17;96901.19;;;13.68;51.50
49044;BME280;34860;48.066;14.124;2023-04-05T12:40:07;96892.59;;;13.62;51.71
49044;BME280;34860;48.066;14.124;2023-04-05T12:43:02;96884.34;;;13.58;51.69
49044;BME280;34860;48.066;14.124;2023-04-05T12:45:53;96887.25;;;13.55;51.61
49044;BME280;34860;48.066;14.124;2023-04-05T12:48:42;96885.28;;;13.42;51.79
49044;BME280;34860;48.066;14.124;2023-04-05T12:51:31;96886.19;;;13.39;52.13
49044;BME280;34860;48.066;14.124;2023-04-05T12:54:21;96884.50;;;13.42;51.82
49044;BME280;34860;48.066;14.124;2023-04-05T12:57:11;96885.94;;;13.47;51.71
49044;BME280;34860;48.066;14.124;2023-04-05T13:00:06;96887.63;;;13.44;51.58
49044;BME280;34860;48.066;14.124;2023-04-05T13:02:55;96888.84;;;13.43;51.60
49044;BME280;34860;48.066;14.124;2023-04-05T13:05:44;96877.81;;;13.39;51.62
49044;BME280;34860;48.066;14.124;2023-04-05T13:08:33;96887.06;;;13.36;51.64
49044;BME280;34860;48.066;14.124;2023-04-05T13:11:21;96884.72;;;13.35;51.63
49044;BME280;34860;48.066;14.124;2023-04-05T13:14:11;96885.06;;;13.37;51.35
49044;BME280;34860;48.066;14.124;2023-04-05T13:16:59;96883.25;;;13.30;51.67
49044;BME280;34860;48.066;14.124;2023-04-05T13:19:48;96879.47;;;13.24;51.64
49044;BME280;34860;48.066;14.124;2023-04-05T13:22:36;96881.03;;;13.25;51.70
49044;BME280;34860;48.066;14.124;2023-04-05T13:25:27;96876.59;;;13.27;51.49
49044;BME280;34860;48.066;14.124;2023-04-05T13:28:15;96873.44;;;13.38;51.60
49044;BME280;34860;48.066;14.124;2023-04-05T13:31:05;96878.88;;;13.55;51.31
49044;BME280;34860;48.066;14.124;2023-04-05T13:33:53;96874.34;;;13.70;51.15
49044;BME280;34860;48.066;14.124;2023-04-05T13:36:41;96873.59;;;13.92;51.11
49044;BME280;34860;48.066;14.124;2023-04-05T13:39:29;96873.59;;;14.14;50.94
49044;BME280;34860;48.066;14.124;2023-04-05T13:42:21;96869.34;;;14.31;50.53
49044;BME280;34860;48.066;14.124;2023-04-05T13:45:10;96872.38;;;14.46;50.53
49044;BME280;34860;48.066;14.124;2023-04-05T13:47:58;96859.53;;;14.58;50.55
49044;BME280;34860;48.066;14.124;2023-04-05T13:50:48;96870.97;;;14.73;50.28
49044;BME280;34860;48.066;14.124;2023-04-05T13:53:37;96862.63;;;14.92;50.20
49044;BME280;34860;48.066;14.124;2023-04-05T13:56:25;96860.69;;;15.11;50.09
49044;BME280;34860;48.066;14.124;2023-04-05T13:59:16;96858.41;;;15.37;49.85
49044;BME280;34860;48.066;14.124;2023-04-05T14:02:06;96852.22;;;15.60;49.84
49044;BME280;34860;48.066;14.124;2023-04-05T14:04:54;96855.03;;;15.79;49.67
49044;BME280;34860;48.066;14.124;2023-04-05T14:07:42;96846.28;;;15.95;49.78
49044;BME280;34860;48.066;14.124;2023-04-05T14:10:31;96850.78;;;16.11;49.63
49044;BME280;34860;48.066;14.124;2023-04-05T14:13:19;96847.66;;;16.19;49.76
49044;BME280;34860;48.066;14.124;2023-04-05T14:16:08;96843.16;;;16.21;49.77
49044;BME280;34860;48.066;14.124;2023-04-05T14:18:57;96843.63;;;16.20;49.71
49044;BME280;34860;48.066;14.124;2023-04-05T14:21:45;96842.38;;;16.11;49.96
49044;BME280;34860;48.066;14.124;2023-04-05T14:24:33;96834.47;;;16.01;49.96
49044;BME280;34860;48.066;14.124;2023-04-05T14:27:21;96843.19;;;15.84;50.02
49044;BME280;34860;48.066;14.124;2023-04-05T14:30:12;96836.16;;;15.61;50.35
49044;BME280;34860;48.066;14.124;2023-04-05T14:33:04;96840.81;;;15.36;50.33
49044;BME280;34860;48.066;14.124;2023-04-05T14:35:54;96838.28;;;15.11;50.39
49044;BME280;34860;48.066;14.124;2023-04-05T14:38:43;96833.09;;;14.81;50.74
49044;BME280;34860;48.066;14.124;2023-04-05T14:41:32;96833.72;;;14.54;50.66
49044;BME280;34860;48.066;14.124;2023-04-05T14:44:20;96834.38;;;14.27;50.64
49044;BME280;34860;48.066;14.124;2023-04-05T14:47:08;96834.84;;;14.03;50.95
49044;BME280;34860;48.066;14.124;2023-04-05T14:49:58;96834.09;;;13.80;51.06
49044;BME280;34860;48.066;14.124;2023-04-05T14:52:46;96835.19;;;13.61;51.07
49044;BME280;34860;48.066;14.124;2023-04-05T14:55:34;96834.25;;;13.42;50.97
49044;BME280;34860;48.066;14.124;2023-04-05T14:58:26;96833.59;;;13.25;50.99
49044;BME280;34860;48.066;14.124;2023-04-05T15:01:15;96835.75;;;13.08;51.03
49044;BME280;34860;48.066;14.124;2023-04-05T15:04:03;96845.03;;;12.92;50.97